Stewart, Texas
Current Conditions -  °F | °C
As of 12:35 AM on Thursday 27 Nov 2014 (Local Time) from KRFI Reporting Station
Clear Clear  
Wind Chill: 45°   Ceiling: Unl
Heat Index: 45°   Visibility: 10mi
Dew Point: 35°   Wind: 0mph
Humidity: 68%   Direction: NA
Pressure: 30.38"   Gusts: NA
Location:  32.1449°N, 94.7416°W
Report Text: KRFI 270635Z AUTO 00000KT 10SM CLR 07/02 A3038 RMK AO2 T00720016
Loading
Personal Weather Stations






























Interactive Weather Map New forecast layout! Learn more

10-Day Weather Forecast

Advertisements
Track Severe Weather on mobile